SAN weather

San Diego International Airport
San Diego, California, United States

Public forecast

Using degrees Fahrenheit for public forecast. Weather courtesy of forecast.io.

METAR (pilot weather report)

Retrieved 2017/12/10 21:51 UTC (1 hour ago):

KSAN 102151Z 32006KT 10SM FEW010 BKN250 25/M03 A3009 RMK AO2 SLP187 FU FEW010 T02501033

TAF (pilot weather forecast)

Retrieved 2017/12/10 18:42 UTC (4 hours ago):

TAF KSAN 101739Z 1018/1124 VRB04KT P6SM BKN250 FM102000 32010KT P6SM SCT250 FM110200 VRB05KT P6SM BKN250 FM112000 30008KT P6SM SCT250